Noaa Gloria Michelle — KJLW — position and weather

sailwx.info

Track history (hours):
 
Tides and Currents Weather Stations Pressure Air Temp Water Temp Dewpoint Dewpoint Depression Visibility Wind Speed Wind Dir Waves Ship Positions

Noaa Gloria Michelle

Last reported at 2017-May-13 18:32 UTC. Time now 2017-May-26 09:35 UTC.
Position N 42°25' W 070°39'.
Warning: this ship's position is 12 days out of date.

; draft 3 m.

Type: Fishing. MMSI: 338066383.

Date/timePositionNaut miles runAvg speedWind from/ knotsBaromVisibWave heightAir tempDewpointWater temp
2017-May-13 18:32N 42°25' W 070°39'0 8.5
2017-May-13 18:30N 42°25' W 070°39'4 8.1
2017-May-13 18:00N 42°29' W 070°39'4 8.0
2017-May-13 17:30N 42°33' W 070°40'3 7.0
2017-May-13 17:00N 42°37' W 070°40'1 2.7
2017-May-13 16:30N 42°35' W 070°40'3 6.5
2017-May-13 16:00N 42°36' W 070°36'3 5.9
2017-May-13 15:30N 42°38' W 070°33'1 1.6
2017-May-13 15:00N 42°39' W 070°33'0 0.6
2017-May-13 14:30N 42°38' W 070°33'5 5.0
2017-May-13 13:30N 42°34' W 070°37'1 1.2
2017-May-13 13:00N 42°35' W 070°37'0 0.9
2017-May-13 12:30N 42°35' W 070°36'4 8.1
2017-May-13 12:00N 42°32' W 070°39'1 1.3
2017-May-13 11:30N 42°32' W 070°40'0 0.6
2017-May-13 11:00N 42°32' W 070°40'2 4.3
2017-May-13 10:30N 42°35' W 070°40'2 4.1
2017-May-13 10:00N 42°37' W 070°40'0 0.0
2017-May-13 09:30N 42°37' W 070°40'0 0.0
2017-May-13 09:00N 42°37' W 070°40'0 0.0
2017-May-13 08:24N 42°37' W 070°40'0 0.0
2017-May-13 07:57N 42°37' W 070°40'0 0.0
2017-May-13 07:27N 42°37' W 070°40'0 0.0
2017-May-13 07:00N 42°37' W 070°40'0 0.0
2017-May-13 06:29N 42°37' W 070°40'0 0.0
2017-May-13 06:00N 42°37' W 070°40'0 0.0
2017-May-13 05:29N 42°37' W 070°40'0 0.0
2017-May-13 04:59N 42°37' W 070°40'0 0.0
2017-May-13 04:29N 42°37' W 070°40'0 0.0
2017-May-13 03:59N 42°37' W 070°40'0 0.0
2017-May-13 03:29N 42°37' W 070°40'0 0.0
2017-May-13 02:57N 42°37' W 070°40'0 0.0
2017-May-13 02:29N 42°37' W 070°40'0 0.0
2017-May-13 01:57N 42°37' W 070°40'0 0.0
2017-May-13 01:21N 42°37' W 070°40'0 0.0
2017-May-13 01:00N 42°37' W 070°40'0 0.0
2017-May-13 00:30N 42°37' W 070°40'2 3.8
2017-May-13 00:00N 42°35' W 070°39'4 8.2
2017-May-12 23:30N 42°37' W 070°35'4 7.7
2017-May-12 23:00N 42°41' W 070°32'1 1.6
2017-May-12 22:30N 42°40' W 070°31'1 1.0
2017-May-12 22:00N 42°40' W 070°31'3 6.3
2017-May-12 21:30N 42°42' W 070°33'4 8.5
2017-May-12 21:00N 42°42' W 070°39'3 5.9
2017-May-12 20:30N 42°41' W 070°43'1 2.4
2017-May-12 20:00N 42°41' W 070°41'3 6.2
2017-May-12 19:30N 42°43' W 070°44'1 2.1
2017-May-12 19:00N 42°42' W 070°43'1 2.0
2017-May-12 18:30N 42°43' W 070°44'1 2.2
2017-May-12 18:00N 42°43' W 070°42'1 2.3
2017-May-12 17:30N 42°44' W 070°43'5 8.7
2017-May-12 16:59N 42°47' W 070°48'1 2.3
2017-May-12 16:30N 42°48' W 070°48'0 0.1
2017-May-12 16:00N 42°48' W 070°48'1 1.2
2017-May-12 14:53N 42°49' W 070°47'3 3.6
2017-May-12 14:00N 42°46' W 070°44'2 4.4
2017-May-12 13:30N 42°44' W 070°43'1 2.8
2017-May-12 13:00N 42°45' W 070°44'3 6.8
2017-May-12 12:30N 42°44' W 070°40'1 1.4
2017-May-12 12:00N 42°43' W 070°40'0 0.0
2017-May-12 11:30N 42°43' W 070°40'3 6.0
2017-May-12 11:00N 42°42' W 070°37'3 6.4
2017-May-12 10:30N 42°39' W 070°34'3 6.6
2017-May-12 10:00N 42°36' W 070°36'3 5.9
2017-May-12 09:30N 42°36' W 070°40'1 2.4
2017-May-12 09:00N 42°37' W 070°40'0 0.0
2017-May-12 08:30N 42°37' W 070°40'0 0.0
2017-May-12 08:00N 42°37' W 070°40'0 0.0
2017-May-12 07:30N 42°37' W 070°40'0 0.0
2017-May-12 07:00N 42°37' W 070°40'0 0.0
2017-May-12 06:30N 42°37' W 070°40'0 0.0
2017-May-12 06:00N 42°37' W 070°40'0 0.0
2017-May-12 05:30N 42°37' W 070°40'0 0.0
2017-May-12 05:00N 42°37' W 070°40'0 0.0
2017-May-12 04:30N 42°37' W 070°40'0 0.0
2017-May-12 04:00N 42°37' W 070°40'0 0.0
2017-May-12 03:30N 42°37' W 070°40'0 0.0
2017-May-12 03:00N 42°37' W 070°40'0 0.0
2017-May-12 02:30N 42°37' W 070°40'0 0.0
2017-May-12 02:00N 42°37' W 070°40'0 0.0
2017-May-12 01:30N 42°37' W 070°40'0 0.0
2017-May-12 01:00N 42°37' W 070°40'0 0.0
2017-May-12 00:30N 42°37' W 070°40'0 0.1
2017-May-12 00:00N 42°37' W 070°40'4 7.4
2017-May-11 23:30N 42°33' W 070°41'1 1.5
2017-May-11 23:00N 42°33' W 070°40'3 6.2
2017-May-11 22:30N 42°30' W 070°42'1 2.0
2017-May-11 22:00N 42°31' W 070°42'1 2.6
2017-May-11 21:30N 42°30' W 070°43'2 4.2
2017-May-11 21:00N 42°29' W 070°45'0 0.1
2017-May-11 20:22N 42°29' W 070°45'3 7.4
2017-May-11 20:00N 42°28' W 070°48'4 8.4
2017-May-11 19:30N 42°25' W 070°52'2 2.1
2017-May-11 18:34N 42°24' W 070°54'0 7.1
2017-May-11 18:30N 42°24' W 070°54'4 7.4
2017-May-11 17:56N 42°23' W 070°48'2 2.1
2017-May-11 17:08N 42°24' W 070°50'0 3.5
2017-May-11 17:00N 42°24' W 070°50'4 4.8
2017-May-11 16:11N 42°23' W 070°44'3 8.3
2017-May-11 15:47N 42°24' W 070°40'1 1.6
2017-May-11 15:28N 42°23' W 070°40'1 2.5
2017-May-11 15:00N 42°22' W 070°40'0 0.4
2017-May-11 14:29N 42°22' W 070°40'2 2.1
2017-May-11 13:30N 42°23' W 070°42'0 0.4
2017-May-11 13:00N 42°23' W 070°43'7 3.3
2017-May-11 10:47N 42°18' W 070°50'2 8.4
2017-May-11 10:30N 42°19' W 070°53'2 0.6
2017-May-11 07:48N 42°18' W 070°55'0 0.0
2017-May-11 07:27N 42°18' W 070°55'0 0.0
2017-May-11 07:00N 42°18' W 070°55'0 0.0
2017-May-11 06:30N 42°18' W 070°55'0 0.0
2017-May-11 06:00N 42°18' W 070°55'0 0.0
2017-May-11 05:30N 42°18' W 070°55'0 0.0
2017-May-11 05:00N 42°18' W 070°55'0 0.0
2017-May-11 04:27N 42°18' W 070°55'0 0.0
2017-May-11 04:00N 42°18' W 070°55'0 0.0
2017-May-11 03:30N 42°18' W 070°55'0 0.0
2017-May-11 03:00N 42°18' W 070°55'0 0.0
2017-May-11 02:30N 42°18' W 070°55'0 0.0
2017-May-11 02:00N 42°18' W 070°55'0 0.0
2017-May-11 01:30N 42°18' W 070°55'0 0.0
2017-May-11 01:00N 42°18' W 070°55'0 0.0
2017-May-11 00:24N 42°18' W 070°55'1 2.8
2017-May-11 00:00N 42°19' W 070°54'3 6.1
2017-May-10 23:30N 42°18' W 070°50'1 2.1
2017-May-10 23:00N 42°17' W 070°52'0 0.6
2017-May-10 22:30N 42°17' W 070°51'0 0.7
2017-May-10 22:00N 42°17' W 070°52'1 1.6
2017-May-10 21:29N 42°17' W 070°51'3 3.5
2017-May-10 20:31N 42°19' W 070°47'0 2.1
2017-May-10 20:29N 42°19' W 070°47'1 2.4
2017-May-10 20:00N 42°19' W 070°49'1 2.4
2017-May-10 19:24N 42°19' W 070°47'33 0.7
2017-May-08 19:20N 41°50' W 070°25'  
Track history (hours):
 
Tides and Currents Weather Stations Pressure Air Temp Water Temp Dewpoint Dewpoint Depression Visibility Wind Speed Wind Dir Waves Ship Positions

Noaa Gloria Michelle

Last reported at 2017-May-13 18:32 UTC. Time now 2017-May-26 09:35 UTC.
Position N 42°25' W 070°39'.
Warning: this ship's position is 12 days out of date.

; draft 3 m.

Type: Fishing. MMSI: 338066383.

Date/timePositionNaut miles runAvg speedWind from/ knotsBaromVisibWave heightAir tempDewpointWater temp
2017-May-13 18:32N 42°25' W 070°39'0 8.5
2017-May-13 18:30N 42°25' W 070°39'4 8.1
2017-May-13 18:00N 42°29' W 070°39'4 8.0
2017-May-13 17:30N 42°33' W 070°40'3 7.0
2017-May-13 17:00N 42°37' W 070°40'1 2.7
2017-May-13 16:30N 42°35' W 070°40'3 6.5
2017-May-13 16:00N 42°36' W 070°36'3 5.9
2017-May-13 15:30N 42°38' W 070°33'1 1.6
2017-May-13 15:00N 42°39' W 070°33'0 0.6
2017-May-13 14:30N 42°38' W 070°33'5 5.0
2017-May-13 13:30N 42°34' W 070°37'1 1.2
2017-May-13 13:00N 42°35' W 070°37'0 0.9
2017-May-13 12:30N 42°35' W 070°36'4 8.1
2017-May-13 12:00N 42°32' W 070°39'1 1.3
2017-May-13 11:30N 42°32' W 070°40'0 0.6
2017-May-13 11:00N 42°32' W 070°40'2 4.3
2017-May-13 10:30N 42°35' W 070°40'2 4.1
2017-May-13 10:00N 42°37' W 070°40'0 0.0
2017-May-13 09:30N 42°37' W 070°40'0 0.0
2017-May-13 09:00N 42°37' W 070°40'0 0.0
2017-May-13 08:24N 42°37' W 070°40'0 0.0
2017-May-13 07:57N 42°37' W 070°40'0 0.0
2017-May-13 07:27N 42°37' W 070°40'0 0.0
2017-May-13 07:00N 42°37' W 070°40'0 0.0
2017-May-13 06:29N 42°37' W 070°40'0 0.0
2017-May-13 06:00N 42°37' W 070°40'0 0.0
2017-May-13 05:29N 42°37' W 070°40'0 0.0
2017-May-13 04:59N 42°37' W 070°40'0 0.0
2017-May-13 04:29N 42°37' W 070°40'0 0.0
2017-May-13 03:59N 42°37' W 070°40'0 0.0
2017-May-13 03:29N 42°37' W 070°40'0 0.0
2017-May-13 02:57N 42°37' W 070°40'0 0.0
2017-May-13 02:29N 42°37' W 070°40'0 0.0
2017-May-13 01:57N 42°37' W 070°40'0 0.0
2017-May-13 01:21N 42°37' W 070°40'0 0.0
2017-May-13 01:00N 42°37' W 070°40'0 0.0
2017-May-13 00:30N 42°37' W 070°40'2 3.8
2017-May-13 00:00N 42°35' W 070°39'4 8.2
2017-May-12 23:30N 42°37' W 070°35'4 7.7
2017-May-12 23:00N 42°41' W 070°32'1 1.6
2017-May-12 22:30N 42°40' W 070°31'1 1.0
2017-May-12 22:00N 42°40' W 070°31'3 6.3
2017-May-12 21:30N 42°42' W 070°33'4 8.5
2017-May-12 21:00N 42°42' W 070°39'3 5.9
2017-May-12 20:30N 42°41' W 070°43'1 2.4
2017-May-12 20:00N 42°41' W 070°41'3 6.2
2017-May-12 19:30N 42°43' W 070°44'1 2.1
2017-May-12 19:00N 42°42' W 070°43'1 2.0
2017-May-12 18:30N 42°43' W 070°44'1 2.2
2017-May-12 18:00N 42°43' W 070°42'1 2.3
2017-May-12 17:30N 42°44' W 070°43'5 8.7
2017-May-12 16:59N 42°47' W 070°48'1 2.3
2017-May-12 16:30N 42°48' W 070°48'0 0.1
2017-May-12 16:00N 42°48' W 070°48'1 1.2
2017-May-12 14:53N 42°49' W 070°47'3 3.6
2017-May-12 14:00N 42°46' W 070°44'2 4.4
2017-May-12 13:30N 42°44' W 070°43'1 2.8
2017-May-12 13:00N 42°45' W 070°44'3 6.8
2017-May-12 12:30N 42°44' W 070°40'1 1.4
2017-May-12 12:00N 42°43' W 070°40'0 0.0
2017-May-12 11:30N 42°43' W 070°40'3 6.0
2017-May-12 11:00N 42°42' W 070°37'3 6.4
2017-May-12 10:30N 42°39' W 070°34'3 6.6
2017-May-12 10:00N 42°36' W 070°36'3 5.9
2017-May-12 09:30N 42°36' W 070°40'1 2.4
2017-May-12 09:00N 42°37' W 070°40'0 0.0
2017-May-12 08:30N 42°37' W 070°40'0 0.0
2017-May-12 08:00N 42°37' W 070°40'0 0.0
2017-May-12 07:30N 42°37' W 070°40'0 0.0
2017-May-12 07:00N 42°37' W 070°40'0 0.0
2017-May-12 06:30N 42°37' W 070°40'0 0.0
2017-May-12 06:00N 42°37' W 070°40'0 0.0
2017-May-12 05:30N 42°37' W 070°40'0 0.0
2017-May-12 05:00N 42°37' W 070°40'0 0.0
2017-May-12 04:30N 42°37' W 070°40'0 0.0
2017-May-12 04:00N 42°37' W 070°40'0 0.0
2017-May-12 03:30N 42°37' W 070°40'0 0.0
2017-May-12 03:00N 42°37' W 070°40'0 0.0
2017-May-12 02:30N 42°37' W 070°40'0 0.0
2017-May-12 02:00N 42°37' W 070°40'0 0.0
2017-May-12 01:30N 42°37' W 070°40'0 0.0
2017-May-12 01:00N 42°37' W 070°40'0 0.0
2017-May-12 00:30N 42°37' W 070°40'0 0.1
2017-May-12 00:00N 42°37' W 070°40'4 7.4
2017-May-11 23:30N 42°33' W 070°41'1 1.5
2017-May-11 23:00N 42°33' W 070°40'3 6.2
2017-May-11 22:30N 42°30' W 070°42'1 2.0
2017-May-11 22:00N 42°31' W 070°42'1 2.6
2017-May-11 21:30N 42°30' W 070°43'2 4.2
2017-May-11 21:00N 42°29' W 070°45'0 0.1
2017-May-11 20:22N 42°29' W 070°45'3 7.4
2017-May-11 20:00N 42°28' W 070°48'4 8.4
2017-May-11 19:30N 42°25' W 070°52'2 2.1
2017-May-11 18:34N 42°24' W 070°54'0 7.1
2017-May-11 18:30N 42°24' W 070°54'4 7.4
2017-May-11 17:56N 42°23' W 070°48'2 2.1
2017-May-11 17:08N 42°24' W 070°50'0 3.5
2017-May-11 17:00N 42°24' W 070°50'4 4.8
2017-May-11 16:11N 42°23' W 070°44'3 8.3
2017-May-11 15:47N 42°24' W 070°40'1 1.6
2017-May-11 15:28N 42°23' W 070°40'1 2.5
2017-May-11 15:00N 42°22' W 070°40'0 0.4
2017-May-11 14:29N 42°22' W 070°40'2 2.1
2017-May-11 13:30N 42°23' W 070°42'0 0.4
2017-May-11 13:00N 42°23' W 070°43'7 3.3
2017-May-11 10:47N 42°18' W 070°50'2 8.4
2017-May-11 10:30N 42°19' W 070°53'2 0.6
2017-May-11 07:48N 42°18' W 070°55'0 0.0
2017-May-11 07:27N 42°18' W 070°55'0 0.0
2017-May-11 07:00N 42°18' W 070°55'0 0.0
2017-May-11 06:30N 42°18' W 070°55'0 0.0
2017-May-11 06:00N 42°18' W 070°55'0 0.0
2017-May-11 05:30N 42°18' W 070°55'0 0.0
2017-May-11 05:00N 42°18' W 070°55'0 0.0
2017-May-11 04:27N 42°18' W 070°55'0 0.0
2017-May-11 04:00N 42°18' W 070°55'0 0.0
2017-May-11 03:30N 42°18' W 070°55'0 0.0
2017-May-11 03:00N 42°18' W 070°55'0 0.0
2017-May-11 02:30N 42°18' W 070°55'0 0.0
2017-May-11 02:00N 42°18' W 070°55'0 0.0
2017-May-11 01:30N 42°18' W 070°55'0 0.0
2017-May-11 01:00N 42°18' W 070°55'0 0.0
2017-May-11 00:24N 42°18' W 070°55'1 2.8
2017-May-11 00:00N 42°19' W 070°54'3 6.1
2017-May-10 23:30N 42°18' W 070°50'1 2.1
2017-May-10 23:00N 42°17' W 070°52'0 0.6
2017-May-10 22:30N 42°17' W 070°51'0 0.7
2017-May-10 22:00N 42°17' W 070°52'1 1.6
2017-May-10 21:29N 42°17' W 070°51'3 3.5
2017-May-10 20:31N 42°19' W 070°47'0 2.1
2017-May-10 20:29N 42°19' W 070°47'1 2.4
2017-May-10 20:00N 42°19' W 070°49'1 2.4
2017-May-10 19:24N 42°19' W 070°47'33 0.7
2017-May-08 19:20N 41°50' W 070°25'  

Dump ship's entire track history